Swinoujscie, Poland
Current Conditions -  °F | °C
As of 5:50 PM on Wednesday 28 Jan 2015 (Local Time) from EDAH Reporting Station
Broken Clouds Broken Clouds  
Wind Chill: 31°   Ceiling: 2700
Heat Index: 39°   Visibility: 6mi
Dew Point: 34°   Wind: 15mph
Humidity: 81%   Direction: 190°S
Pressure: 29.47"   Gusts: NA
Location:  53.91°N, 14.25°E
Report Text: EDAH 281550Z 19013KT 9999 BKN027 04/01 Q0998
Loading
Personal Weather Stations






























Interactive Weather Map New forecast layout! Learn more

10-Day Weather Forecast

Advertisements
Track Severe Weather on mobile